Home > Products > Valid Products > TAF

000
FTUS42 KFFC 270527
TAFCSG
TAF
KCSG 270527Z 2706/2806 33005KT P6SM BKN070
     FM271000 32005KT P6SM BKN035
     FM271600 33010KT P6SM BKN040
     FM271900 34012G22KT P6SM SCT045
     FM280100 33006KT P6SM SCT250=



000
FTUS42 KFFC 270527
TAFATL
TAF
KATL 270527Z 2706/2812 30007KT P6SM BKN070
     FM271000 30008KT P6SM BKN025
     FM271600 31012G22KT P6SM BKN035
     FM271900 32015G25KT P6SM SCT040
     FM280200 33010KT P6SM SCT250=



000
FTUS42 KFFC 270527
TAFPDK
TAF
KPDK 270527Z 2706/2806 30005KT P6SM BKN080
     FM270900 30005KT P6SM BKN025
     FM271600 31010G15KT P6SM BKN035
     FM271900 32012G22KT P6SM SCT040
     FM280100 32006KT P6SM SCT250=



000
FTUS42 KFFC 270527
TAFMCN
TAF
KMCN 270527Z 2706/2806 30006KT P6SM BKN080
     FM271000 30005KT P6SM BKN035
     FM271600 31010KT P6SM BKN040
     FM271900 32012G22KT P6SM SCT045
     FM280100 32006KT P6SM SCT250=



000
FTUS42 KFFC 270527
TAFRYY
TAF
KRYY 270527Z 2706/2806 30005KT P6SM BKN080
     FM270900 30005KT P6SM BKN025
     FM271600 31010G15KT P6SM BKN035
     FM271900 32012G22KT P6SM SCT040
     FM280100 32006KT P6SM SCT250
      AMD NOT SKED TIL 271200=



000
FTUS42 KFFC 270527
TAFAHN
TAF
KAHN 270527Z 2706/2806 28006KT P6SM BKN100
     FM271000 28006KT P6SM OVC025
     FM271600 29010G15KT P6SM BKN035
     FM271900 30012G22KT P6SM SCT040
     FM280100 29008KT P6SM SCT250=



000
FTUS42 KFFC 270527
TAFFTY
TAF
KFTY 270527Z 2706/2806 30004KT P6SM BKN080
     FM270900 30005KT P6SM BKN025
     FM271600 31010G15KT P6SM BKN035
     FM271900 32012G22KT P6SM SCT040
     FM280100 32007KT P6SM SCT250=



000
FTUS42 KFFC 270439 AAA
TAFCSG
TAF AMD
KCSG 270439Z 2705/2724 33005KT P6SM BKN100
     FM270900 32004KT P6SM OVC025
     FM271600 33010KT P6SM BKN040
     FM271900 34012G22KT P6SM SCT050
     FM272300 33007KT P6SM SCT250=



000
FTUS42 KFFC 270438 AAA
TAFMCN
TAF AMD
KMCN 270438Z 2705/2724 30006KT P6SM BKN090
     FM270900 30005KT P6SM OVC025
     FM271600 31010KT P6SM BKN040
     FM271900 32012G22KT P6SM SCT050
     FM272300 32006KT P6SM SCT250=



000
FTUS42 KFFC 270437 AAA
TAFAHN
TAF AMD
KAHN 270437Z 2705/2724 28007KT P6SM BKN100
     FM271000 28006KT P6SM OVC025
     FM271600 29010KT P6SM BKN040
     FM271900 30013G23KT P6SM SCT050
     FM272300 29008KT P6SM SCT250=



000
FTUS42 KFFC 270435 AAA
TAFPDK
TAF AMD
KPDK 270435Z 2705/2724 31008KT P6SM BKN090
     FM270800 30006KT P6SM OVC025
     FM271600 31010KT P6SM BKN040
     FM271900 32013G23KT P6SM SCT250
     FM272300 32007KT P6SM FEW250=



000
FTUS42 KFFC 270433 AAA
TAFFTY
TAF AMD
KFTY 270433Z 2705/2724 31004KT P6SM BKN080
     FM270800 30004KT P6SM BKN025
     FM271600 31010KT P6SM BKN040
     FM271900 32013G23KT P6SM SCT250
     FM272300 32006KT P6SM SCT250=



000
FTUS42 KFFC 270431 AAC
TAFATL
TAF AMD
KATL 270431Z 2705/2806 30007KT P6SM BKN070
     FM270800 30008KT P6SM OVC025
     FM271600 31012KT P6SM BKN040
     FM271900 32015G25KT P6SM SCT250
     FM280100 33010KT P6SM SKC=



000
FTUS42 KFFC 270354 AAB
TAFATL
TAF AMD
KATL 270354Z 2704/2806 31008KT P6SM BKN070
     FM270700 30008KT P6SM OVC025
     FM271600 31012KT P6SM BKN040
     FM271900 32015G25KT P6SM SCT250=



000
FTUS42 KFFC 270153 AAA
TAFATL
TAF AMD
KATL 270153Z 2702/2806 31010KT P6SM SCT025 BKN100
     FM270300 31009KT P6SM -RA SCT025 BKN070
     FM270700 30008KT P6SM OVC025
     FM271600 31012KT P6SM BKN040
     FM271900 32015G25KT P6SM SCT250=



000
FTUS42 KFFC 262335
TAFPDK
TAF
KPDK 262335Z 2700/2724 31010G20KT P6SM BKN025 OVC100
     FM270300 31008G18KT P6SM SCT025 BKN100
     FM270800 30006KT P6SM OVC025
     FM271600 31010KT P6SM BKN040
     FM271900 32013G23KT P6SM SCT250=



000
FTUS42 KFFC 262335
TAFRYY
TAF
KRYY 262335Z 2700/2724 31010G20KT P6SM BKN025 OVC100
     FM270300 31008G18KT P6SM SCT025 BKN100
     FM270800 30006KT P6SM OVC025
     FM271600 31010KT P6SM BKN040
     FM271900 32013G23KT P6SM SCT250
      AMD NOT SKED 2704/2712=



000
FTUS42 KFFC 262335
TAFMCN
TAF
KMCN 262335Z 2700/2724 31010G20KT P6SM BKN030 OVC100
     FM270300 31008G18KT P6SM SCT030 BKN100
     FM270800 30006KT P6SM OVC025
     FM271600 31010KT P6SM BKN040
     FM271900 32013G23KT P6SM SCT250=



000
FTUS42 KFFC 262335
TAFCSG
TAF
KCSG 262335Z 2700/2724 33010G20KT P6SM BKN030 OVC100
     FM270300 33008G18KT P6SM SCT030 BKN100
     FM270800 32006KT P6SM OVC025
     FM271600 33010KT P6SM BKN040
     FM271900 34013G23KT P6SM SCT250=



000
FTUS42 KFFC 262335
TAFATL
TAF
KATL 262335Z 2700/2806 31012G22KT P6SM BKN025 OVC100
     FM270300 31010G20KT P6SM SCT025 BKN100
     FM270800 30008KT P6SM OVC025
     FM271600 31012KT P6SM BKN040
     FM271900 32015G25KT P6SM SCT250=



000
FTUS42 KFFC 262335
TAFFTY
TAF
KFTY 262335Z 2700/2724 31010G20KT P6SM BKN025 OVC100
     FM270300 31008G18KT P6SM SCT025 BKN100
     FM270800 30006KT P6SM OVC025
     FM271600 31010KT P6SM BKN040
     FM271900 32013G23KT P6SM SCT250=



000
FTUS42 KFFC 262335
TAFAHN
TAF
KAHN 262335Z 2700/2724 29010G20KT P6SM BKN025 OVC100
     FM270300 29008G18KT P6SM SCT025 BKN100
     FM270800 28006KT P6SM OVC025
     FM271600 29010KT P6SM BKN040
     FM271900 30013G23KT P6SM SCT250=



000
FTUS42 KFFC 262140 AAB
TAFATL
TAF AMD
KATL 262140Z 2622/2724 31015G25KT P6SM FEW012 BKN020 OVC030
     FM270000 31010G18KT P6SM BKN020 OVC030
     FM270600 30008KT P6SM OVC025
     FM271600 31012KT P6SM OVC040=



000
FTUS42 KFFC 261952 AAA
TAFATL
TAF AMD
KATL 261952Z 2620/2724 31015G25KT P6SM BKN012
     FM262300 31010G18KT P6SM BKN020
     FM270600 30008KT P6SM OVC025
     FM271600 31012KT P6SM OVC040=



000
FTUS42 KFFC 261720
TAFMCN
TAF
KMCN 261720Z 2618/2718 30013G23KT P6SM BKN030
     FM262300 30011KT P6SM BKN040
     FM271100 28006KT P6SM BKN025
     FM271400 30010KT P6SM SCT035=



000
FTUS42 KFFC 261720
TAFRYY
TAF
KRYY 261720Z 2618/2718 31013G23KT P6SM BKN025
     FM262300 31010KT P6SM BKN035
     FM270600 30006KT P6SM OVC025
     FM271600 31010KT P6SM OVC040=



000
FTUS42 KFFC 261720
TAFPDK
TAF
KPDK 261720Z 2618/2718 31013G23KT P6SM BKN030
     FM262300 31010KT P6SM BKN035
     FM270600 30006KT P6SM OVC025
     FM271600 31010KT P6SM OVC040=



000
FTUS42 KFFC 261720
TAFAHN
TAF
KAHN 261720Z 2618/2718 30014G24KT P6SM BKN040
     FM270000 29010KT P6SM BKN050
     FM270300 29006KT P6SM BKN050
     FM271400 30008KT P6SM SCT050=



000
FTUS42 KFFC 261720
TAFATL
TAF
KATL 261720Z 2618/2724 31018G28KT P6SM BKN025
     FM262300 31010G18KT P6SM BKN035
     FM270600 30008KT P6SM OVC025
     FM271600 31012KT P6SM OVC040=



000
FTUS42 KFFC 261720
TAFFTY
TAF
KFTY 261720Z 2618/2718 31013G23KT P6SM BKN025
     FM262300 31010KT P6SM BKN035
     FM270600 30006KT P6SM OVC025
     FM271600 31010KT P6SM OVC040=



000
FTUS42 KFFC 261720
TAFCSG
TAF
KCSG 261720Z 2618/2718 30013G23KT P6SM BKN030
     FM262300 30011KT P6SM BKN040
     FM271100 28006KT P6SM BKN025
     FM271400 30010KT P6SM SCT035=



000
FTUS42 KFFC 261558 AAB
TAFATL
TAF AMD
KATL 261558Z 2616/2718 31013G23KT P6SM -DZ BKN020
     FM261800 31016G26KT P6SM BKN025
     FM262300 31011KT P6SM SCT120
     FM270900 30007KT P6SM BKN050
     FM271400 31010KT P6SM FEW060=



000
FTUS42 KFFC 261405 AAA
TAFATL
TAF AMD
KATL 261405Z 2614/2718 28012G18KT P6SM BKN015
      TEMPO 2614/2615 -RA BKN010
     FM261500 31015G25KT P6SM BKN025
     FM261800 31016G26KT P6SM BKN050
     FM262300 31011KT P6SM SCT120
     FM270900 30007KT P6SM BKN050
     FM271400 31010KT P6SM FEW060=



000
FTUS42 KFFC 261132
TAFATL
TAF
KATL 261132Z 2612/2718 28010KT P6SM BKN015
      TEMPO 2612/2615 -RA BKN010
     FM261500 31015G25KT P6SM BKN025
     FM261800 31016G26KT P6SM BKN050
     FM262300 31011KT P6SM SCT120
     FM270900 30007KT P6SM BKN050
     FM271400 31010KT P6SM FEW060=



000
FTUS42 KFFC 261132
TAFRYY
TAF
KRYY 261132Z 2612/2712 28008KT P6SM OVC020
      TEMPO 2612/2615 -RA BKN015
     FM261500 31012G22KT P6SM BKN025
     FM261800 31014G24KT P6SM BKN050
     FM262300 31008KT P6SM SCT060 BKN120
     FM270900 30005KT P6SM BKN050=



000
FTUS42 KFFC 261132
TAFAHN
TAF
KAHN 261132Z 2612/2712 28008KT P6SM SCT020 BKN035
      TEMPO 2612/2615 -RA BKN020
     FM261500 29011G21KT P6SM BKN025
     FM261800 30014G24KT P6SM BKN040
     FM270000 29010KT P6SM BKN050
     FM270300 29006KT P6SM SCT050=



000
FTUS42 KFFC 261132
TAFCSG
TAF
KCSG 261132Z 2612/2712 30010KT P6SM SCT010 BKN025
      TEMPO 2612/2615 BKN010
     FM261600 30012G20KT P6SM BKN040
     FM261900 30014G24KT P6SM SCT050
     FM270000 31010KT P6SM SCT250
     FM270900 28006KT P6SM SKC=



000
FTUS42 KFFC 261132
TAFMCN
TAF
KMCN 261132Z 2612/2712 28010KT P6SM BKN025
     FM261600 30012G20KT P6SM BKN040
     FM261900 30014G24KT P6SM SCT050
     FM270000 31010KT P6SM SCT250
     FM270900 28006KT P6SM SKC=



000
FTUS42 KFFC 261132
TAFFTY
TAF
KFTY 261132Z 2612/2712 28008KT P6SM OVC020
      TEMPO 2612/2615 -RA BKN015
     FM261500 31012G22KT P6SM BKN025
     FM261800 31014G24KT P6SM BKN050
     FM262300 31008KT P6SM SCT060 BKN120
     FM270900 30005KT P6SM BKN050=



000
FTUS42 KFFC 261132
TAFPDK
TAF
KPDK 261132Z 2612/2712 28008KT P6SM OVC020
      TEMPO 2612/2615 -RA BKN015
     FM261500 31012G22KT P6SM BKN025
     FM261800 31014G24KT P6SM BKN050
     FM262300 31008KT P6SM SCT060 BKN120
     FM270900 30005KT P6SM BKN050=



000
FTUS42 KFFC 261049 AAC
TAFATL
TAF AMD
KATL 261049Z 2611/2712 27008KT P6SM BKN015
      TEMPO 2612/2615 -RA BKN010
     FM261500 30015G25KT P6SM BKN025
     FM261800 31016G26KT P6SM BKN050
     FM270000 31011KT P6SM SCT060 BKN120
     FM270900 30007KT P6SM BKN050=



000
FTUS42 KFFC 260940 AAA
TAFCSG
TAF AMD
KCSG 260940Z 2610/2706 29007KT P6SM SCT020 BKN060
      TEMPO 2610/2612 BKN020
     FM261200 30010KT P6SM BKN020
     FM261600 30012G20KT P6SM BKN040
     FM261900 30014G24KT P6SM SCT050
     FM270000 31010KT P6SM FEW100 SCT250=



000
FTUS42 KFFC 260939 AAA
TAFMCN
TAF AMD
KMCN 260939Z 2610/2706 26008KT P6SM SCT025 BKN080
      TEMPO 2610/2612 BKN025
     FM261200 28010KT P6SM BKN025
     FM261600 30012G20KT P6SM BKN040
     FM261900 30014G24KT P6SM SCT050
     FM270000 31010KT P6SM FEW100 SCT250=



000
FTUS42 KFFC 260937 AAA
TAFAHN
TAF AMD
KAHN 260937Z 2610/2706 26006KT P6SM SCT020 BKN060
      TEMPO 2610/2612 BKN020
     FM261200 28008KT P6SM OVC015
     FM261500 29011G21KT P6SM BKN025
     FM261800 30014G24KT P6SM BKN050
     FM270000 29010KT P6SM SCT060 BKN120=



000
FTUS42 KFFC 260935 AAA
TAFPDK
TAF AMD
KPDK 260935Z 2610/2706 27006KT P6SM BKN025
     FM261100 29010KT P6SM OVC015
     FM261500 31012G22KT P6SM BKN025
     FM261800 31014G24KT P6SM BKN050
     FM270000 31009KT P6SM SCT060 BKN120=



000
FTUS42 KFFC 260935 AAA
TAFRYY
TAF AMD
KRYY 260935Z 2610/2706 28006KT P6SM BKN025
     FM261100 29010KT P6SM OVC015
     FM261500 31012G22KT P6SM BKN025
     FM261800 31014G24KT P6SM BKN050
     FM270000 31009KT P6SM SCT060 BKN120=



000
FTUS42 KFFC 260934 AAA
TAFFTY
TAF AMD
KFTY 260934Z 2610/2706 28008KT P6SM BKN025
     FM261100 29010KT P6SM OVC015
     FM261500 31012G22KT P6SM BKN025
     FM261800 31014G24KT P6SM BKN050
     FM270000 31009KT P6SM SCT060 BKN120=



000
FTUS42 KFFC 260933 AAB
TAFATL
TAF AMD
KATL 260933Z 2610/2712 27008KT P6SM BKN025
     FM261100 29010KT P6SM OVC015
     FM261500 31015G25KT P6SM BKN025
     FM261800 31016G26KT P6SM BKN050
     FM270000 31011KT P6SM SCT060 BKN120
     FM270900 30007KT P6SM BKN050=



000
FTUS42 KFFC 260753 AAA
TAFATL
TAF AMD
KATL 260753Z 2608/2712 25007KT P6SM SCT025 BKN070
      TEMPO 2608/2610 -RA BKN025
     FM261000 28010KT P6SM -RA OVC015
     FM261500 31015G25KT P6SM BKN025
     FM261800 31016G26KT P6SM BKN050
     FM270000 31011KT P6SM SCT060 BKN120
     FM270900 30007KT P6SM BKN050=



000
FTUS42 KFFC 260528
TAFFTY
TAF
KFTY 260528Z 2606/2706 24006KT P6SM SCT025 BKN060
      TEMPO 2606/2609 -RA BKN025
     FM260900 28009KT P6SM -RA OVC015
     FM261500 31012G22KT P6SM BKN025
     FM261800 31014G24KT P6SM BKN050
     FM270000 31009KT P6SM SCT060 BKN120=



000
FTUS42 KFFC 260528
TAFATL
TAF
KATL 260528Z 2606/2712 24007KT P6SM SCT025 BKN060
      TEMPO 2606/2609 -RA BKN025
     FM260900 28010KT P6SM -RA OVC015
     FM261500 31015G25KT P6SM BKN025
     FM261800 31016G26KT P6SM BKN050
     FM270000 31011KT P6SM SCT060 BKN120
     FM270900 30007KT P6SM BKN050=



000
FTUS42 KFFC 260528
TAFAHN
TAF
KAHN 260528Z 2606/2706 24006KT P6SM SCT025 BKN060
      TEMPO 2606/2609 -RA BKN025
     FM260900 25007KT P6SM -RA OVC015
     FM261500 29011G21KT P6SM BKN025
     FM261800 30014G24KT P6SM BKN050
     FM270000 29010KT P6SM SCT060 BKN120=



000
FTUS42 KFFC 260528
TAFMCN
TAF
KMCN 260528Z 2606/2706 23007KT P6SM BKN060
     FM260900 26006KT P6SM SCT025 BKN050
     FM261200 29008KT P6SM BKN025
     FM261500 30012G20KT P6SM BKN040
     FM261900 30014G24KT P6SM SCT050
     FM270000 31010KT P6SM FEW100 SCT250=



000
FTUS42 KFFC 260528
TAFRYY
TAF
KRYY 260528Z 2606/2706 24006KT P6SM SCT025 BKN060
      TEMPO 2606/2609 -RA BKN025
     FM260900 28009KT P6SM -RA OVC015
     FM261500 31012G22KT P6SM BKN025
     FM261800 31014G24KT P6SM BKN050
     FM270000 31009KT P6SM SCT060 BKN120=



000
FTUS42 KFFC 260528
TAFPDK
TAF
KPDK 260528Z 2606/2706 24006KT P6SM SCT025 BKN060
      TEMPO 2606/2609 -RA BKN025
     FM260900 28009KT P6SM -RA OVC015
     FM261500 31012G22KT P6SM BKN025
     FM261800 31014G24KT P6SM BKN050
     FM270000 31009KT P6SM SCT060 BKN120=



000
FTUS42 KFFC 260528
TAFCSG
TAF
KCSG 260528Z 2606/2706 23007KT P6SM BKN060
     FM260900 26006KT P6SM SCT025 BKN050
     FM261200 29008KT P6SM BKN025
     FM261500 30012G20KT P6SM BKN040
     FM261900 30014G24KT P6SM SCT050
     FM270000 31010KT P6SM FEW100 SCT250=



000
FTUS42 KFFC 260451 AAC
TAFATL
TAF AMD
KATL 260451Z 2605/2706 24007KT P6SM -RA BKN035 OVC060
     FM260600 27008KT P6SM -RA OVC025
     FM260900 29009KT 6SM -RA OVC012
     FM261500 31012G25KT P6SM BKN025
     FM261800 31016G26KT P6SM BKN080
     FM270000 32012KT P6SM BKN250=



000
FTUS42 KFFC 260402 AAB
TAFATL
TAF AMD
KATL 260402Z 2604/2706 30010KT 6SM -RA SCT015 BKN035
     FM260600 25007KT P6SM -RA BKN012 OVC025
     FM260900 27008KT 4SM -RA OVC012
     FM261500 31012G25KT P6SM BKN025
     FM261800 31016G26KT P6SM BKN080
     FM270000 32012KT P6SM BKN250=



000
FTUS42 KFFC 260207 AAA
TAFPDK
TAF AMD
KPDK 260207Z 2602/2624 20006KT 6SM -RA SCT035 OVC050
      TEMPO 2602/2604 30015G35KT 4SM -RA BKN030
     FM260500 24007KT P6SM -RA OVC025
     FM260900 27008KT P6SM -RA OVC012
     FM261500 31012G22KT P6SM BKN025
     FM261800 31016G24KT P6SM BKN080=



000
FTUS42 KFFC 260205 AAA
TAFRYY
TAF AMD
KRYY 260205Z 2602/2624 30010KT 6SM -RA SCT035 OVC050
      TEMPO 2602/2604 30015G35KT 4SM -RA BKN030
     FM260500 24006KT P6SM -RA OVC025
     FM260900 27006KT P6SM -RA OVC012
     FM261500 31012G22KT P6SM BKN025
     FM261800 31016G25KT P6SM BKN080=



000
FTUS42 KFFC 260203 AAA
TAFFTY
TAF AMD
KFTY 260203Z 2602/2624 20008KT P6SM -RA SCT035 BKN060
      TEMPO 2602/2604 29015G35KT 4SM -RA BKN030
     FM260500 24007KT P6SM -RA OVC025
     FM260900 27008KT P6SM -RA OVC012
     FM261500 31012G22KT P6SM BKN025
     FM261800 31016G24KT P6SM BKN080=



000
FTUS42 KFFC 260159 AAA
TAFATL
TAF AMD
KATL 260159Z 2602/2706 20006KT P6SM -RA SCT035 BKN050
      TEMPO 2602/2604 28015G35KT 4SM -RA BKN030
     FM260500 24007KT P6SM -RA OVC025
     FM260900 27008KT P6SM -RA OVC012
     FM261500 31012G25KT P6SM BKN025
     FM261800 31016G26KT P6SM BKN080
     FM270000 32012KT P6SM BKN250=



000
FTUS42 KFFC 252332
TAFMCN
TAF
KMCN 252332Z 2600/2624 22008G15KT P6SM SCT250
     FM260300 23007KT P6SM BKN050
     FM260900 26006KT P6SM OVC020
     FM261500 29012G20KT P6SM BKN025
     FM261900 30012G22KT P6SM SCT050=



000
FTUS42 KFFC 252332
TAFRYY
TAF
KRYY 252332Z 2600/2624 21008G18KT P6SM SCT250
     FM260100 20010KT P6SM -RA SCT035 OVC050
     FM260500 24006KT P6SM -RA OVC025
     FM260900 27006KT P6SM -RA OVC012
     FM261500 31012G22KT P6SM BKN025
     FM261800 31016G25KT P6SM BKN080=



000
FTUS42 KFFC 252332
TAFATL
TAF
KATL 252332Z 2600/2706 19011KT P6SM SCT120
     FM260200 20006KT P6SM -RA SCT035 OVC050
     FM260500 24007KT P6SM -RA OVC025
     FM260900 27008KT P6SM -RA OVC012
     FM261500 31012G25KT P6SM BKN025
     FM261800 31016G26KT P6SM BKN080
     FM270000 32012KT P6SM BKN250=



000
FTUS42 KFFC 252332
TAFCSG
TAF
KCSG 252332Z 2600/2624 22010KT P6SM SCT250
     FM260300 23008KT P6SM BKN050
     FM260800 26005KT P6SM BKN020
     FM261500 30012G20KT P6SM BKN030
     FM261900 30012G22KT P6SM SCT050=



000
FTUS42 KFFC 252332
TAFPDK
TAF
KPDK 252332Z 2600/2624 20008KT P6SM SCT120
     FM260200 20006KT P6SM -RA SCT035 OVC050
     FM260500 24007KT P6SM -RA OVC025
     FM260900 27008KT P6SM -RA OVC012
     FM261500 31012G22KT P6SM BKN025
     FM261800 31016G24KT P6SM BKN080=



000
FTUS42 KFFC 252332
TAFFTY
TAF
KFTY 252332Z 2600/2624 20008KT P6SM SCT120
     FM260200 20006KT P6SM -RA SCT035 OVC050
     FM260500 24007KT P6SM -RA OVC025
     FM260900 27008KT P6SM -RA OVC012
     FM261500 31012G22KT P6SM BKN025
     FM261800 31016G24KT P6SM BKN080=



000
FTUS42 KFFC 252332
TAFAHN
TAF
KAHN 252332Z 2600/2624 19005KT P6SM SCT120
     FM260300 18005KT P6SM OVC045
     FM260600 21004KT P6SM -RA OVC025
     FM260900 24004KT P6SM -RA SCT007 OVC015
     FM261500 31012G20KT P6SM BKN025
     FM261800 30014G24KT P6SM BKN050=



000
FTUS42 KFFC 252207 AAB
TAFCSG
TAF AMD
KCSG 252207Z 2522/2618 23009G20KT P6SM SKC
     FM260000 22009KT P6SM SCT250
     FM260300 23006KT P6SM OVC050
     FM260800 26005KT P6SM OVC015
     FM261500 30012G20KT P6SM BKN030=



000
FTUS42 KFFC 252205 AAB
TAFRYY
TAF AMD
KRYY 252205Z 2522/2618 21008G18KT P6SM SCT250
     FM260100 20004KT P6SM SCT035 OVC050
     FM260500 24005KT P6SM -RA OVC025
     FM260900 27006KT P6SM -RA OVC012
     FM261500 31012G20KT P6SM BKN025=



000
FTUS42 KFFC 252201 AAB
TAFFTY
TAF AMD
KFTY 252201Z 2522/2618 20010G18KT P6SM SCT120
     FM260100 20004KT P6SM SCT035 OVC050
     FM260500 24005KT P6SM -RA OVC025
     FM260900 27006KT P6SM -RA OVC012
     FM261500 31012G20KT P6SM BKN025=



000
FTUS42 KFFC 252159 AAC
TAFATL
TAF AMD
KATL 252159Z 2522/2624 21008G18KT P6SM SKC
     FM260000 20010KT P6SM SCT120
     FM260200 20006KT P6SM SCT035 OVC050
     FM260500 24007KT P6SM -RA OVC025
     FM260900 27008KT P6SM -RA OVC012
     FM261500 31012G22KT P6SM BKN025
     FM261800 31016G22KT P6SM BKN250=



000
FTUS42 KFFC 251935 AAA
TAFCSG
TAF AMD
KCSG 251935Z 2520/2618 23009G20KT P6SM FEW250
     FM252200 22009KT P6SM SCT250
     FM260300 23006KT P6SM OVC050
     FM260800 26005KT P6SM OVC015
     FM261500 30012G20KT P6SM BKN030=



000
FTUS42 KFFC 251935 AAB
TAFATL
TAF AMD
KATL 251935Z 2520/2624 21008G18KT P6SM SCT200
     FM252200 19008KT P6SM SCT120
     FM260000 20006KT P6SM SCT035 OVC050
     FM260500 24007KT P6SM -RA OVC025
     FM260900 27008KT P6SM -RA OVC012
     FM261500 31012G22KT P6SM BKN025
     FM261800 31016G22KT P6SM BKN250=



000
FTUS42 KFFC 251934 AAA
TAFPDK
TAF AMD
KPDK 251934Z 2520/2618 21010G20KT P6SM SCT250
     FM252200 19008KT P6SM SCT120 OVC200
     FM260000 20004KT P6SM SCT035 OVC050
     FM260500 24005KT P6SM -RA OVC025
     FM260900 27006KT P6SM -RA OVC012
     FM261500 31012G20KT P6SM BKN025=



000
FTUS42 KFFC 251934 AAB
TAFMCN
TAF AMD
KMCN 251934Z 2520/2618 23010G18KT P6SM FEW250
     FM252200 22009KT P6SM SCT250
     FM260300 23006KT P6SM OVC050
     FM260900 26005KT P6SM OVC020
     FM261500 29012G20KT P6SM BKN025=



000
FTUS42 KFFC 251832 AAA
TAFMCN
TAF AMD
KMCN 251832Z 2519/2618 21008G18KT P6SM FEW250
     FM252100 20009KT P6SM SCT250
     FM260300 23006KT P6SM OVC050
     FM260900 26005KT P6SM OVC020
     FM261500 29012G20KT P6SM BKN025=



000
FTUS42 KFFC 251831 AAA
TAFRYY
TAF AMD
KRYY 251831Z 2519/2618 21008G18KT P6SM SCT250
     FM252100 19008KT P6SM SCT120 OVC200
     FM260000 20004KT P6SM SCT035 OVC050
     FM260500 24005KT P6SM -RA OVC025
     FM260900 27006KT P6SM -RA OVC012
     FM261500 31012G20KT P6SM BKN025=



000
FTUS42 KFFC 251831 AAA
TAFFTY
TAF AMD
KFTY 251831Z 2519/2618 22008G18KT P6SM SCT250
     FM252100 19008KT P6SM SCT120 OVC200
     FM260000 20004KT P6SM SCT035 OVC050
     FM260500 24005KT P6SM -RA OVC025
     FM260900 27006KT P6SM -RA OVC012
     FM261500 31012G20KT P6SM BKN025=



000
FTUS42 KFFC 251830 AAA
TAFATL
TAF AMD
KATL 251830Z 2519/2624 21008G18KT P6SM SCT200
     FM252100 19008KT P6SM SCT120 OVC200
     FM260000 20006KT P6SM SCT035 OVC050
     FM260500 24007KT P6SM -RA OVC025
     FM260900 27008KT P6SM -RA OVC012
     FM261500 31012G22KT P6SM BKN025
     FM261800 31016G22KT P6SM BKN250=



000
FTUS42 KFFC 251729
TAFMCN
TAF
KMCN 251729Z 2518/2618 21006KT P6SM FEW250
     FM251900 20009KT P6SM SCT250
     FM260300 23006KT P6SM OVC050
     FM260900 26005KT P6SM OVC020
     FM261500 29012G20KT P6SM BKN025=



000
FTUS42 KFFC 251729
TAFCSG
TAF
KCSG 251729Z 2518/2618 23006KT P6SM FEW250
     FM251900 20009KT P6SM SCT250
     FM260300 23006KT P6SM OVC050
     FM260800 26005KT P6SM OVC015
     FM261500 30012G20KT P6SM BKN030=



000
FTUS42 KFFC 251729
TAFATL
TAF
KATL 251729Z 2518/2624 21008KT P6SM SCT200
     FM252100 19008KT P6SM SCT120 OVC200
     FM260000 20006KT P6SM SCT035 OVC050
     FM260500 24007KT P6SM -RA OVC025
     FM260900 27008KT P6SM -RA OVC012
     FM261500 31012G22KT P6SM BKN025
     FM261800 31016G22KT P6SM BKN250=



000
FTUS42 KFFC 251729
TAFFTY
TAF
KFTY 251729Z 2518/2618 22006KT P6SM SCT250
     FM252100 19006KT P6SM SCT120 OVC200
     FM260000 20004KT P6SM SCT035 OVC050
     FM260500 24005KT P6SM -RA OVC025
     FM260900 27006KT P6SM -RA OVC012
     FM261500 31012G20KT P6SM BKN025=



000
FTUS42 KFFC 251729
TAFRYY
TAF
KRYY 251729Z 2518/2618 21007KT P6SM SCT250
     FM252100 19006KT P6SM SCT120 OVC200
     FM260000 20004KT P6SM SCT035 OVC050
     FM260500 24005KT P6SM -RA OVC025
     FM260900 27006KT P6SM -RA OVC012
     FM261500 31012G20KT P6SM BKN025=



000
FTUS42 KFFC 251729
TAFPDK
TAF
KPDK 251729Z 2518/2618 21007KT P6SM SCT250
     FM252100 19006KT P6SM SCT120 OVC200
     FM260000 20004KT P6SM SCT035 OVC050
     FM260500 24005KT P6SM -RA OVC025
     FM260900 27006KT P6SM -RA OVC012
     FM261500 31012G20KT P6SM BKN025=



000
FTUS42 KFFC 251729
TAFAHN
TAF
KAHN 251729Z 2518/2618 22007KT P6SM SCT220
     FM252100 19006KT P6SM SCT120 OVC200
     FM260000 19005KT P6SM SCT045 OVC070
     FM260300 18005KT P6SM OVC040
     FM260600 21004KT P6SM -RA OVC025
     FM260900 24004KT P6SM -RA SCT007 OVC015
     FM261500 31012G20KT P6SM BKN025=



000
FTUS42 KFFC 251533 AAB
TAFATL
TAF AMD
KATL 251533Z 2516/2618 22008KT P6SM FEW200
     FM251800 21008KT P6SM SCT200
     FM252100 19008KT P6SM SCT120 OVC200
     FM260000 20006KT P6SM SCT035 OVC050
     FM260500 24007KT P6SM -RA OVC025
     FM260900 27008KT P6SM -RA OVC012
     FM261500 31012G22KT P6SM BKN025=



000
FTUS42 KFFC 251343 AAA
TAFATL
TAF AMD
KATL 251343Z 2514/2618 22006KT P6SM FEW200
     FM251500 21008KT P6SM SCT200
     FM252100 19008KT P6SM SCT120 OVC200
     FM260000 20006KT P6SM SCT035 OVC050
     FM260500 24007KT P6SM -RA OVC025
     FM260900 27008KT P6SM -RA OVC012
     FM261500 31012G22KT P6SM BKN025=



000
FTUS42 KFFC 251124
TAFMCN
TAF
KMCN 251124Z 2512/2612 26005KT P6SM SKC
     FM251500 23006KT P6SM FEW250
     FM251900 20009KT P6SM SCT250
     FM260300 23006KT P6SM OVC050
     FM260900 26005KT P6SM OVC025=



000
FTUS42 KFFC 251124
TAFFTY
TAF
KFTY 251124Z 2512/2612 24004KT P6SM SKC
     FM251500 21007KT P6SM SCT250
     FM252100 19006KT P6SM SCT120 OVC200
     FM260000 20004KT P6SM SCT035 OVC050
     FM260500 24005KT P6SM -RA OVC025
     FM260900 27006KT P6SM -RA OVC012=



000
FTUS42 KFFC 251124
TAFCSG
TAF
KCSG 251124Z 2512/2612 26005KT P6SM SKC
     FM251500 23006KT P6SM FEW250
     FM251900 20009KT P6SM SCT250
     FM260300 23006KT P6SM OVC050
     FM260800 26005KT P6SM OVC025=



000
FTUS42 KFFC 251124
TAFAHN
TAF
KAHN 251124Z 2512/2612 25005KT P6SM SKC
     FM251500 22007KT P6SM SCT220
     FM252100 19006KT P6SM SCT120 OVC200
     FM260000 19005KT P6SM SCT045 OVC070
     FM260300 18005KT P6SM OVC040
     FM260600 21004KT P6SM -RA OVC025
     FM260900 24004KT P6SM -RA OVC015=



000
FTUS42 KFFC 251124
TAFRYY
TAF
KRYY 251124Z 2512/2612 24005KT P6SM SKC
     FM251500 21007KT P6SM SCT250
     FM252100 19006KT P6SM SCT120 OVC200
     FM260000 20004KT P6SM SCT035 OVC050
     FM260500 24005KT P6SM -RA OVC025
     FM260900 27006KT P6SM -RA OVC012=



000
FTUS42 KFFC 251124
TAFPDK
TAF
KPDK 251124Z 2512/2612 24004KT P6SM SKC
     FM251500 21007KT P6SM SCT250
     FM252100 19006KT P6SM SCT120 OVC200
     FM260000 20004KT P6SM SCT035 OVC050
     FM260500 24005KT P6SM -RA OVC025
     FM260900 27006KT P6SM -RA OVC012=



000
FTUS42 KFFC 251124
TAFATL
TAF
KATL 251124Z 2512/2618 24006KT P6SM SKC
     FM251500 21008KT P6SM SCT250
     FM252100 19008KT P6SM SCT120 OVC200
     FM260000 20006KT P6SM SCT035 OVC050
     FM260500 24007KT P6SM -RA OVC025
     FM260900 27008KT P6SM -RA OVC012
     FM261500 31012G22KT P6SM BKN025=



000
FTUS42 KFFC 250945 AAA
TAFRYY
TAF AMD
KRYY 250945Z 2510/2606 24004KT P6SM SKC
     FM251500 21007KT P6SM SCT250
     FM252100 19006KT P6SM SCT120 OVC200
     FM260000 20004KT P6SM SCT035 OVC050
     FM260500 24005KT P6SM -RA OVC025
      AMD NOT SKED TIL 251200=



000
FTUS42 KFFC 250945 AAA
TAFRYY
TAF AMD
KRYY 250945Z 2510/2606 24004KT P6SM SKC
     FM251500 21007KT P6SM SCT250
     FM252100 19006KT P6SM SCT120 OVC200
     FM260000 20004KT P6SM SCT035 OVC050
     FM260500 24005KT P6SM -RA OVC025
      AMD NOT SKED TIL 251200=



000
FTUS42 KFFC 250945 AAA
TAFPDK
TAF AMD
KPDK 250945Z 2510/2606 24004KT P6SM SKC
     FM251500 21007KT P6SM SCT250
     FM252100 19006KT P6SM SCT120 OVC200
     FM260000 20004KT P6SM SCT035 OVC050
     FM260500 24005KT P6SM -RA OVC025=



000
FTUS42 KFFC 250945 AAA
TAFPDK
TAF AMD
KPDK 250945Z 2510/2606 24004KT P6SM SKC
     FM251500 21007KT P6SM SCT250
     FM252100 19006KT P6SM SCT120 OVC200
     FM260000 20004KT P6SM SCT035 OVC050
     FM260500 24005KT P6SM -RA OVC025=



000
FTUS42 KFFC 250944 AAA
TAFFTY
TAF AMD
KFTY 250944Z 2510/2606 24004KT P6SM SKC
     FM251500 21007KT P6SM SCT250
     FM252100 19006KT P6SM SCT120 OVC200
     FM260000 20004KT P6SM SCT035 OVC050
     FM260500 24005KT P6SM -RA OVC025=



000
FTUS42 KFFC 250944 AAA
TAFFTY
TAF AMD
KFTY 250944Z 2510/2606 24004KT P6SM SKC
     FM251500 21007KT P6SM SCT250
     FM252100 19006KT P6SM SCT120 OVC200
     FM260000 20004KT P6SM SCT035 OVC050
     FM260500 24005KT P6SM -RA OVC025=



000
FTUS42 KFFC 250944 AAC
TAFATL
TAF AMD
KATL 250944Z 2510/2612 25004KT P6SM SKC
     FM251500 21008KT P6SM SCT250
     FM252100 19008KT P6SM SCT120 OVC200
     FM260000 20006KT P6SM SCT035 OVC050
     FM260500 24007KT P6SM -RA OVC025
     FM260900 27008KT P6SM -RA OVC015=



000
FTUS42 KFFC 250944 AAC
TAFATL
TAF AMD
KATL 250944Z 2510/2612 25004KT P6SM SKC
     FM251500 21008KT P6SM SCT250
     FM252100 19008KT P6SM SCT120 OVC200
     FM260000 20006KT P6SM SCT035 OVC050
     FM260500 24007KT P6SM -RA OVC025
     FM260900 27008KT P6SM -RA OVC015=



000
FTUS42 KFFC 250933 AAB
TAFATL
TAF AMD
KATL 250933Z 2510/2612 25004KT P6SM SKC
     FM251500 21008KT P6SM SCT250
     FM252100 19008KT P6SM SCT120 OVC200
     FM260000 20006KT P6SM SCT035 OVC050
     FM260500 24007KT P6SM OVC025
     FM260900 27008KT P6SM -RA OVC015=



000
FTUS42 KFFC 250731 AAA
TAFATL
TAF AMD
KATL 250731Z 2508/2612 25004KT P6SM SKC
     FM251500 21008KT P6SM SCT220
     FM252100 19008KT P6SM SCT120 OVC200
     FM260000 20006KT P6SM SCT035 OVC050
     FM260500 24007KT P6SM OVC025
     FM260900 27008KT P6SM -RA OVC015=



000
FTUS42 KFFC 250530
TAFMCN
TAF
KMCN 250530Z 2506/2606 28003KT P6SM SKC
     FM251500 24006KT P6SM FEW250
     FM251900 21009KT P6SM SCT250
     FM260300 24006KT P6SM OVC050=



000
FTUS42 KFFC 250530
TAFFTY
TAF
KFTY 250530Z 2506/2606 24004KT P6SM SKC
     FM251500 21007KT P6SM SCT220
     FM252100 19006KT P6SM SCT120 OVC200
     FM260000 20004KT P6SM SCT035 OVC050
     FM260500 24005KT P6SM OVC025=



000
FTUS42 KFFC 250530
TAFAHN
TAF
KAHN 250530Z 2506/2606 25005KT P6SM SKC
     FM251500 22007KT P6SM SCT220
     FM252100 19006KT P6SM SCT120 OVC200
     FM260000 20004KT P6SM SCT040 OVC070
     FM260500 24005KT P6SM OVC040=



000
FTUS42 KFFC 250530
TAFRYY
TAF
KRYY 250530Z 2506/2606 24004KT P6SM SKC
     FM251500 21007KT P6SM SCT220
     FM252100 19006KT P6SM SCT120 OVC200
     FM260000 20004KT P6SM SCT035 OVC050
     FM260500 24005KT P6SM OVC025
      AMD NOT SKED TIL 251200=



000
FTUS42 KFFC 250530
TAFATL
TAF
KATL 250530Z 2506/2612 25004KT P6SM SKC
     FM251500 21008KT P6SM SCT220
     FM252100 19008KT P6SM SCT120 OVC200
     FM260000 20006KT P6SM SCT035 OVC050
     FM260500 24007KT P6SM OVC025
     FM260900 27008KT P6SM -RA OVC015=



000
FTUS42 KFFC 250530
TAFPDK
TAF
KPDK 250530Z 2506/2606 24004KT P6SM SKC
     FM251500 21007KT P6SM SCT220
     FM252100 19006KT P6SM SCT120 OVC200
     FM260000 20004KT P6SM SCT035 OVC050
     FM260500 24005KT P6SM OVC025=



000
FTUS42 KFFC 250530
TAFCSG
TAF
KCSG 250530Z 2506/2606 28003KT P6SM SKC
     FM251500 25006KT P6SM FEW250
     FM251900 22009KT P6SM SCT250
     FM260300 25006KT P6SM OVC050=



000
FTUS42 KFFC 250330 AAB
TAFATL
TAF AMD
KATL 250330Z 2504/2606 25004KT P6SM SKC
     FM251500 21008KT P6SM SCT220
     FM252100 19008KT P6SM SCT120 OVC200
     FM260000 20007KT P6SM SCT040 BKN060 OVC100=



000
FTUS42 KFFC 250132 AAA
TAFATL
TAF AMD
KATL 250132Z 2502/2606 27005KT P6SM SKC
     FM251500 22008KT P6SM SCT220
     FM252100 20008KT P6SM SCT120 OVC200
     FM260000 21007KT P6SM SCT040 BKN060 OVC100=



000
FTUS42 KFFC 242320
TAFPDK
TAF
KPDK 242320Z 2500/2524 27005KT P6SM SKC
     FM251500 22007KT P6SM SCT220
     FM252100 20007KT P6SM SCT120 OVC200=



000
FTUS42 KFFC 242320
TAFATL
TAF
KATL 242320Z 2500/2606 28006KT P6SM SKC
     FM251500 22008KT P6SM SCT220
     FM252100 20008KT P6SM SCT120 OVC200
     FM260000 21007KT P6SM SCT040 BKN060 OVC100=



000
FTUS42 KFFC 242320
TAFRYY
TAF
KRYY 242320Z 2500/2524 29004KT P6SM SKC
     FM251500 22007KT P6SM SCT220
     FM252100 22008KT P6SM SCT120 OVC200 PROB30 2523/2524 -RA BKN060
      OVC100
      AMD NOT SKED 2504/2512=



000
FTUS42 KFFC 242320
TAFFTY
TAF
KFTY 242320Z 2500/2524 27003KT P6SM SKC
     FM251500 21007KT P6SM SCT220
     FM252100 20007KT P6SM SCT120 OVC200=



000
FTUS42 KFFC 242320
TAFCSG
TAF
KCSG 242320Z 2500/2524 29003KT P6SM SKC
     FM251500 24005KT P6SM FEW250
     FM251900 23010KT P6SM SCT200=



000
FTUS42 KFFC 242320
TAFMCN
TAF
KMCN 242320Z 2500/2524 28003KT P6SM SKC
     FM251500 23005KT P6SM FEW250
     FM251900 22009KT P6SM SCT250=



000
FTUS42 KFFC 242320
TAFAHN
TAF
KAHN 242320Z 2500/2524 28005KT P6SM SKC
     FM251500 24006KT P6SM SCT220
     FM252100 20007KT P6SM BKN200=



000
FTUS42 KFFC 242130 AAB
TAFATL
TAF AMD
KATL 242130Z 2422/2524 30012G20KT P6SM SKC
     FM250000 28006KT P6SM SKC
     FM251400 22008KT P6SM SCT220
     FM252100 21008KT P6SM SCT120 OVC200=



000
FTUS42 KFFC 241933 AAA
TAFATL
TAF AMD
KATL 241933Z 2420/2524 30013G20KT P6SM SKC
     FM250000 28006KT P6SM SKC
     FM251400 24008KT P6SM FEW220
     FM252100 21008KT P6SM OVC220=



000
FTUS42 KFFC 241920 AAA
TAFCSG
TAF AMD
KCSG 241920Z 2419/2518 30013G22KT P6SM SKC
     FM250000 28004KT P6SM SKC
     FM251400 24006KT P6SM FEW220=



000
FTUS42 KFFC 241721
TAFAHN
TAF
KAHN 241721Z 2418/2518 28012G18KT P6SM SKC
     FM250000 28005KT P6SM SKC
     FM251400 24006KT P6SM FEW220=



000
FTUS42 KFFC 241721
TAFFTY
TAF
KFTY 241721Z 2418/2518 30010G18KT P6SM SKC
     FM250000 28004KT P6SM SKC
     FM251400 24006KT P6SM FEW220=



000
FTUS42 KFFC 241721
TAFMCN
TAF
KMCN 241721Z 2418/2518 30014G22KT P6SM SKC
     FM242300 27004KT P6SM SKC
     FM251400 24006KT P6SM FEW220=



000
FTUS42 KFFC 241721
TAFCSG
TAF
KCSG 241721Z 2418/2518 32013G22KT P6SM SKC
     FM250000 28004KT P6SM SKC
     FM251400 24006KT P6SM FEW220=



000
FTUS42 KFFC 241721
TAFRYY
TAF
KRYY 241721Z 2418/2518 30012G18KT P6SM SKC
     FM250000 28004KT P6SM SKC
     FM251400 24006KT P6SM FEW220=



000
FTUS42 KFFC 241721
TAFPDK
TAF
KPDK 241721Z 2418/2518 29010G18KT P6SM SKC
     FM250000 28004KT P6SM SKC
     FM251400 24006KT P6SM FEW220=



000
FTUS42 KFFC 241721
TAFATL
TAF
KATL 241721Z 2418/2524 29012G20KT P6SM SKC
     FM250000 28006KT P6SM SKC
     FM251400 24008KT P6SM FEW220
     FM252100 21008KT P6SM OVC220=



000
FTUS42 KFFC 241638 AAB
TAFMCN
TAF AMD
KMCN 241638Z 2417/2512 30014G22KT P6SM SKC
     FM242300 27004KT P6SM SKC=



000
FTUS42 KFFC 241554 AAB
TAFATL
TAF AMD
KATL 241554Z 2416/2518 30014G22KT P6SM BKN020
     FM241800 29012G20KT P6SM SKC
     FM250000 28006KT P6SM SKC
     FM251400 24008KT P6SM FEW220=



000
FTUS42 KFFC 241503 AAA
TAFFTY
TAF AMD
KFTY 241503Z 2415/2512 30010G18KT P6SM OVC015
     FM241600 30012G20KT P6SM BKN020
     FM241800 29010G18KT P6SM SKC
     FM250000 28004KT P6SM SKC=



000
FTUS42 KFFC 241503 AAA
TAFRYY
TAF AMD
KRYY 241503Z 2415/2512 30010G18KT P6SM BKN015 BKN025
     FM241600 30012G20KT P6SM BKN025
     FM241800 30010G18KT P6SM SKC
     FM250000 28004KT P6SM SKC=



000
FTUS42 KFFC 241502 AAA
TAFPDK
TAF AMD
KPDK 241502Z 2415/2512 29010G18KT 6SM -DZ OVC011
     FM241600 29012G20KT P6SM BKN020
     FM241800 29010G18KT P6SM SKC
     FM250000 28004KT P6SM SKC=



000
FTUS42 KFFC 241502 AAA
TAFCSG
TAF AMD
KCSG 241502Z 2415/2512 31010G18KT P6SM BKN020
     FM241700 30012G20KT P6SM SKC
     FM250000 28004KT P6SM SKC=



000
FTUS42 KFFC 241501 AAA
TAFMCN
TAF AMD
KMCN 241501Z 2415/2512 29014G22KT P6SM BKN020
     FM241800 29014G22KT P6SM SKC
     FM242300 27004KT P6SM SKC=



000
FTUS42 KFFC 241453 AAA
TAFAHN
TAF AMD
KAHN 241453Z 2415/2512 28015G25KT P6SM SCT019
     FM241900 28012G18KT P6SM SKC
     FM250000 28007KT P6SM SKC=



000
FTUS42 KFFC 241352 AAA
TAFATL
TAF AMD
KATL 241352Z 2414/2518 30015G25KT 6SM -DZ SCT009 OVC015
     FM241600 30014G22KT P6SM BKN020
     FM241800 29012G20KT P6SM SKC
     FM250000 28006KT P6SM SKC
     FM251400 24008KT P6SM FEW220=



000
FTUS42 KFFC 241139
TAFRYY
TAF
KRYY 241139Z 2412/2512 30010G18KT 5SM -DZ BKN009 OVC015
     FM241500 30012G20KT P6SM BKN020
     FM241800 30010G18KT P6SM SKC
     FM250000 28004KT P6SM SKC=



000
FTUS42 KFFC 241139
TAFAHN
TAF
KAHN 241139Z 2412/2512 29008KT 6SM -DZ BR OVC005
     FM241600 28012G20KT P6SM BKN015
     FM241900 28012G18KT P6SM SKC
     FM250000 28007KT P6SM SKC=



000
FTUS42 KFFC 241139
TAFATL
TAF
KATL 241139Z 2412/2518 30014G22KT 6SM -DZ BKN009 OVC015
     FM241500 30014G22KT P6SM BKN020
     FM241800 29012G20KT P6SM SKC
     FM250000 28006KT P6SM SKC
     FM251400 24008KT P6SM FEW220=



000
FTUS42 KFFC 241139
TAFCSG
TAF
KCSG 241139Z 2412/2512 30010G18KT P6SM BKN009 OVC015
     FM241400 31012G20KT P6SM BKN015
     FM241700 30012G20KT P6SM SKC
     FM250000 28004KT P6SM SKC=



000
FTUS42 KFFC 241139
TAFPDK
TAF
KPDK 241139Z 2412/2512 29010G18KT 6SM -DZ BKN009 OVC015
     FM241500 29012G20KT P6SM BKN020
     FM241800 29010G18KT P6SM SKC
     FM250000 28004KT P6SM SKC=



000
FTUS42 KFFC 241139
TAFMCN
TAF
KMCN 241139Z 2412/2512 31010G18KT P6SM -DZ BKN009 OVC015
     FM241600 29014G22KT P6SM BKN015
     FM241800 29014G22KT P6SM SKC
     FM242300 27004KT P6SM SKC=



000
FTUS42 KFFC 241139
TAFFTY
TAF
KFTY 241139Z 2412/2512 30010G18KT 6SM -DZ BKN009 OVC015
     FM241500 30012G20KT P6SM BKN020
     FM241800 29010G18KT P6SM SKC
     FM250000 28004KT P6SM SKC=



000
FTUS42 KFFC 241102 AAA
TAFRYY
TAF AMD
KRYY 241102Z 2411/2506 30010G18KT 5SM -DZ BKN009 OVC015
     FM241500 30012G20KT P6SM BKN020
     FM241800 30010KT P6SM SKC
     FM242300 29005KT P6SM SKC
      AMD NOT SKED TIL 241200=



000
FTUS42 KFFC 241102 AAA
TAFPDK
TAF AMD
KPDK 241102Z 2411/2506 29010G18KT 6SM -DZ BKN009 OVC015
     FM241500 29012G20KT P6SM BKN020
     FM241800 29012KT P6SM SKC
     FM242300 29006KT P6SM SKC=



000
FTUS42 KFFC 241102 AAA
TAFFTY
TAF AMD
KFTY 241102Z 2411/2506 30010G18KT 6SM -DZ BKN009 OVC015
     FM241500 30012G20KT P6SM BKN020
     FM241800 29010KT P6SM SKC
     FM242300 29005KT P6SM SKC=



000
FTUS42 KFFC 241102 AAC
TAFATL
TAF AMD
KATL 241102Z 2411/2512 33008KT 5SM -DZ BR OVC004
     FM241200 30014G22KT 6SM -DZ BKN009 OVC015
     FM241500 30014G22KT P6SM BKN020
     FM241800 29012G20KT P6SM SKC
     FM242300 28006KT P6SM SKC=



000
FTUS42 KFFC 240957 AAB
TAFATL
TAF AMD
KATL 240957Z 2410/2512 33008KT 5SM -DZ BR OVC004
     FM241100 30014G22KT 6SM -DZ BKN009 OVC015
     FM241500 30014G22KT P6SM BKN020
     FM241800 29012G20KT P6SM SKC
     FM242300 29007KT P6SM SKC=



000
FTUS42 KFFC 240957 AAB
TAFATL
TAF AMD
KATL 240957Z 2410/2512 33008KT 5SM -DZ BR OVC004
     FM241100 30014G22KT 6SM -DZ BKN009 OVC015
     FM241500 30014G22KT P6SM BKN020
     FM241800 29012G20KT P6SM SKC
     FM242300 29007KT P6SM SKC=



000
FTUS42 KFFC 240906 AAA
TAFCSG
TAF AMD
KCSG 240906Z 2409/2506 30008KT 6SM -DZ BR OVC007
     FM241400 31012G20KT P6SM BKN015
     FM241700 30012G20KT P6SM SKC
     FM242300 29005KT P6SM SKC=



    US Dept of Commerce
    National Oceanic and Atmospheric Administration
    National Weather Service
    1325 East West Highway
    Silver Spring, MD 20910
    Page Author: NWS Internet Services Team
Disclaimer
Information Quality
Credits
Glossary
Privacy Policy
Freedom of Information Act (FOIA)
About Us
Career Opportunities